Ana Sayfa
METAR-TAF:

METAR-TAF

Havaalanları :

Proserpine, Avustralya

Enlem: 20-29-42S, Boylam: 148-33-06E, yükseklik: 25 m

Güncel hava durumu gözlemi

Rapor saat 22:00 UTC de 1 saat ve 5 dakika önce yapıldı.
Rüzgar güneydan 7 kt
Sıcaklık 25°C
Nem 94%
Basınç 1009 hPa
Görüş mesafesi 10 km veya daha fazla
1900 ft yükseklikte parçalı bulutlu
3000 ft yükseklikte parçalı çok bulutlu
4200 ft yükseklikte parçalı çok bulutlu

METAR: YBPN 262200Z AUTO 18007KT 9999 // SCT019 BKN030 BKN042 25/24 Q1009

Saat: 09:05 (23:05 UTC)


TAF: eksik

4.000'den fazla havaalanı için hava durumu gözlemleri ve tahminleri (METAR ve TAF raporları).

Kullanılabilir istasyonlar harita üzerinde sarı ve kırmızı noktalarla gösterilir.

İstasyonun adını görmek için fareyi noktanın üzerinde gezdirin.

Sonrasında hava gözlem ve tahminlerini görmek için tıklayın.

Haritayı değiştirmek için: yaklaştırmak için siyah artı işaretli yeşil düğmeye ve uzaklaştırmak için de eksi işaretli düğmeye hızla tıklayın; bitişik haritalar için yeşil okları kullanın.


METAR-TAF: